Time;durP1;ratioP1;P1;durP2;ratioP2;P2;SDS_P1;SDS_P2;PMS_P1;PMS_P2;Temp;Humidity;BMP_temperature;BMP_pressure;BME280_temperature;BME280_humidity;BME280_pressure;Samples;Min_cycle;Max_cycle;Signal;HPM_P1;HPM_P2
2022/08/06 00:00:41;;;;;;;8.40;2.70;;;;;;;13.81;67.67;102507.66;5110894;28;20092;-58
2022/08/06 00:03:07;;;;;;;8.02;2.80;;;;;;;13.74;68.03;102500.34;5113104;28;20024;-56
2022/08/06 00:05:33;;;;;;;8.23;2.80;;;;;;;13.72;68.13;102509.34;5114374;27;20064;-58
2022/08/06 00:07:58;;;;;;;8.63;3.05;;;;;;;13.39;69.15;102510.56;5112847;28;20095;-56
2022/08/06 00:10:24;;;;;;;6.68;2.75;;;;;;;13.42;69.09;102508.47;5112718;28;20119;-56
2022/08/06 00:12:49;;;;;;;9.48;3.20;;;;;;;13.55;69.53;102510.91;5112131;28;20019;-57
2022/08/06 00:15:17;;;;;;;7.53;2.88;;;;;;;13.58;69.00;102515.94;5110124;27;20032;-56
2022/08/06 00:17:46;;;;;;;11.48;3.42;;;;;;;13.48;69.11;102515.09;5112871;27;20026;-56
2022/08/06 00:20:13;;;;;;;9.20;2.90;;;;;;;13.50;69.34;102513.13;5110287;28;20035;-55
2022/08/06 00:22:38;;;;;;;9.05;2.95;;;;;;;13.45;69.32;102515.34;5110923;28;20495;-57
2022/08/06 00:25:05;;;;;;;9.50;2.95;;;;;;;13.49;69.34;102516.78;5090761;27;20027;-55
2022/08/06 00:27:30;;;;;;;8.13;2.85;;;;;;;13.47;68.77;102524.06;5126071;27;20540;-56
2022/08/06 00:29:55;;;;;;;9.40;2.70;;;;;;;13.35;69.08;102520.66;5108118;28;20031;-56
2022/08/06 00:32:21;;;;;;;6.78;2.75;;;;;;;13.19;69.06;102532.69;5107094;28;20031;-57
2022/08/06 00:34:46;;;;;;;11.25;3.17;;;;;;;13.09;69.36;102534.50;5105094;28;20027;-55
2022/08/06 00:37:11;;;;;;;9.52;3.28;;;;;;;13.04;70.34;102534.91;5111733;28;20031;-56
2022/08/06 00:39:37;;;;;;;9.25;3.30;;;;;;;12.81;71.50;102536.94;5109986;28;20107;-56
2022/08/06 00:42:02;;;;;;;5.80;2.92;;;;;;;12.59;71.66;102532.66;5110693;28;20047;-56
2022/08/06 00:44:27;;;;;;;7.35;2.80;;;;;;;12.61;71.60;102539.53;5110032;28;20069;-57
2022/08/06 00:46:53;;;;;;;5.15;2.83;;;;;;;12.64;72.12;102539.25;5088915;28;20479;-56
2022/08/06 00:49:18;;;;;;;6.78;3.10;;;;;;;12.74;71.67;102533.97;5106170;28;20032;-55
2022/08/06 00:51:43;;;;;;;6.97;3.03;;;;;;;12.80;70.91;102537.06;5109249;28;20459;-55
2022/08/06 00:54:09;;;;;;;11.07;3.60;;;;;;;12.78;71.08;102540.72;5106053;28;20395;-56
2022/08/06 00:56:34;;;;;;;10.75;3.22;;;;;;;12.78;70.82;102551.34;5110017;27;20032;-58
2022/08/06 00:59:00;;;;;;;13.32;3.72;;;;;;;12.72;70.54;102546.56;5110548;28;20036;-56
2022/08/06 01:01:25;;;;;;;8.95;3.42;;;;;;;12.69;71.38;102546.84;5112167;28;20107;-55
2022/08/06 01:03:50;;;;;;;11.38;3.72;;;;;;;12.37;72.72;102545.13;5109932;28;20413;-56
2022/08/06 01:06:16;;;;;;;10.82;3.60;;;;;;;12.28;72.62;102560.06;5113128;27;20032;-56
2022/08/06 01:08:42;;;;;;;6.95;3.53;;;;;;;12.42;72.64;102556.22;5111694;28;20032;-55
2022/08/06 01:11:07;;;;;;;10.52;3.50;;;;;;;12.30;73.31;102562.59;5109227;28;20114;-56
2022/08/06 01:13:33;;;;;;;7.70;3.30;;;;;;;12.46;72.45;102565.66;5111578;28;20053;-55
2022/08/06 01:16:27;;;;;;;9.02;3.42;;;;;;;12.64;71.73;102567.69;5110777;27;20051;-55
2022/08/06 01:19:23;;;;;;;6.75;3.30;;;;;;;12.67;71.44;102575.41;5108322;28;20055;-54
2022/08/06 01:22:00;;;;;;;8.52;3.40;;;;;;;12.34;72.87;102559.53;5066335;28;20051;-55
2022/08/06 01:24:42;;;;;;;7.35;3.50;;;;;;;12.25;73.26;102570.97;5103830;28;20169;-55
2022/08/06 01:27:29;;;;;;;7.38;3.30;;;;;;;12.30;72.66;102568.78;5110100;27;20035;-57
2022/08/06 01:29:59;;;;;;;8.85;3.47;;;;;;;12.13;73.01;102572.84;5107424;28;20035;-55
2022/08/06 01:32:33;;;;;;;8.35;3.42;;;;;;;12.05;73.71;102567.34;5105828;28;20043;-58
2022/08/06 01:35:04;;;;;;;10.10;4.00;;;;;;;12.24;73.06;102580.75;5109584;28;20039;-56
2022/08/06 01:37:35;;;;;;;8.68;3.63;;;;;;;12.16;73.60;102577.91;5111183;28;20038;-56
2022/08/06 01:40:05;;;;;;;8.05;3.40;;;;;;;11.97;73.33;102571.44;5109695;28;20046;-54
2022/08/06 01:42:33;;;;;;;6.90;3.47;;;;;;;11.87;73.79;102570.53;5107510;28;20019;-57
2022/08/06 01:45:03;;;;;;;6.22;3.80;;;;;;;11.78;73.70;102568.63;5103507;28;20118;-57
2022/08/06 01:47:31;;;;;;;7.22;3.40;;;;;;;11.92;73.99;102572.78;5106653;28;20047;-57
2022/08/06 01:50:02;;;;;;;9.63;3.80;;;;;;;12.05;73.76;102573.47;5102961;28;20353;-56
2022/08/06 01:52:32;;;;;;;9.52;3.50;;;;;;;12.15;73.35;102570.06;5107365;28;20024;-56
2022/08/06 01:54:59;;;;;;;8.68;3.78;;;;;;;12.16;72.91;102577.91;5108231;28;20126;-56
2022/08/06 01:57:26;;;;;;;13.00;4.25;;;;;;;12.12;73.53;102581.78;5106344;28;20106;-57
2022/08/06 01:59:55;;;;;;;6.22;3.30;;;;;;;12.13;72.99;102572.84;5105352;28;20428;-57
2022/08/06 02:02:23;;;;;;;9.25;3.55;;;;;;;12.16;73.19;102580.56;5096287;28;20032;-55
2022/08/06 02:04:53;;;;;;;7.40;3.20;;;;;;;12.14;73.84;102574.53;5105165;28;20116;-56
2022/08/06 02:07:23;;;;;;;8.05;3.45;;;;;;;12.19;73.85;102574.97;5100762;28;20041;-57
2022/08/06 02:09:50;;;;;;;9.77;3.80;;;;;;;12.15;72.86;102570.91;5102378;28;20052;-55
2022/08/06 02:12:19;;;;;;;7.50;3.50;;;;;;;12.13;73.27;102578.16;5111880;28;20039;-57
2022/08/06 02:14:50;;;;;;;10.50;3.63;;;;;;;12.10;73.53;102573.13;5110939;28;20031;-56
2022/08/06 02:17:18;;;;;;;9.50;3.47;;;;;;;12.13;73.71;102570.19;5110458;28;20031;-56
2022/08/06 02:19:47;;;;;;;10.65;3.50;;;;;;;12.17;74.24;102574.28;5109565;28;20032;-54
2022/08/06 02:22:12;;;;;;;10.82;3.63;;;;;;;12.17;73.67;102584.06;5111539;28;20142;-56
2022/08/06 02:24:38;;;;;;;13.57;4.30;;;;;;;11.98;75.15;102591.75;5106991;28;20102;-56
2022/08/06 02:27:05;;;;;;;11.25;3.85;;;;;;;11.82;75.33;102591.31;5102789;28;20036;-57
2022/08/06 02:29:31;;;;;;;8.75;3.80;;;;;;;11.81;74.82;102586.97;5108358;28;20027;-55
2022/08/06 02:31:57;;;;;;;12.38;3.83;;;;;;;11.61;75.18;102583.28;5102994;28;20046;-55
2022/08/06 02:34:22;;;;;;;8.77;3.88;;;;;;;11.63;75.56;102587.53;5104140;28;20741;-56
2022/08/06 02:37:04;;;;;;;8.68;3.65;;;;;;;11.83;74.80;102577.06;5106254;28;20024;-56
2022/08/06 02:39:44;;;;;;;9.75;3.97;;;;;;;11.82;75.17;102580.69;5114513;28;20038;-55
2022/08/06 02:42:26;;;;;;;8.57;3.75;;;;;;;11.82;75.38;102580.69;5112527;28;20083;-56
2022/08/06 02:45:01;;;;;;;9.70;3.90;;;;;;;11.75;75.88;102580.34;5109947;28;20492;-56
2022/08/06 02:47:30;;;;;;;9.52;3.80;;;;;;;11.56;76.52;102581.84;5111148;28;20032;-56
2022/08/06 02:49:59;;;;;;;10.15;4.10;;;;;;;11.43;76.46;102583.81;5110563;28;20046;-55
2022/08/06 02:52:31;;;;;;;13.65;3.95;;;;;;;11.53;76.78;102571.50;5111846;28;20030;-56
2022/08/06 02:55:05;;;;;;;8.10;4.05;;;;;;;11.60;76.29;102579.78;5113559;28;20130;-55
2022/08/06 02:57:36;;;;;;;13.90;4.10;;;;;;;11.68;77.20;102585.34;5108625;27;20036;-56
2022/08/06 03:00:06;;;;;;;10.70;4.55;;;;;;;11.59;77.34;102583.41;5110294;28;20032;-57
2022/08/06 03:02:35;;;;;;;11.82;4.20;;;;;;;11.59;77.39;102580.75;5099750;28;20384;-60
2022/08/06 03:05:02;;;;;;;11.45;4.00;;;;;;;11.61;77.54;102578.84;5108598;28;20103;-56
2022/08/06 03:07:31;;;;;;;6.80;4.10;;;;;;;11.78;77.31;102589.88;5116654;27;20032;-56
2022/08/06 03:09:58;;;;;;;9.88;3.97;;;;;;;11.89;77.01;102597.81;5114634;28;20039;-56
2022/08/06 03:12:24;;;;;;;8.73;3.88;;;;;;;11.91;76.69;102595.03;5113104;28;20028;-56
2022/08/06 03:14:53;;;;;;;12.73;4.10;;;;;;;11.91;76.31;102590.56;5110061;28;20030;-55
2022/08/06 03:17:19;;;;;;;9.23;3.80;;;;;;;11.89;76.18;102589.84;5122946;27;20023;-56
2022/08/06 03:19:45;;;;;;;7.45;4.10;;;;;;;11.65;76.67;102593.53;5113880;28;20531;-56
2022/08/06 03:22:12;;;;;;;6.28;3.90;;;;;;;11.63;77.25;102600.81;5111328;28;20027;-55
2022/08/06 03:24:39;;;;;;;11.27;4.60;;;;;;;11.60;77.43;102598.38;5111254;28;20055;-55
2022/08/06 03:27:06;;;;;;;8.40;4.47;;;;;;;11.73;77.48;102600.06;5112827;27;20033;-54
2022/08/06 03:29:33;;;;;;;9.05;4.40;;;;;;;11.71;76.96;102601.00;5101865;28;20035;-56
2022/08/06 03:32:00;;;;;;;10.60;4.65;;;;;;;11.59;77.13;102599.34;5114430;28;20031;-56
2022/08/06 03:34:28;;;;;;;8.73;4.45;;;;;;;11.56;76.50;102604.94;5109386;28;20117;-56
2022/08/06 03:36:55;;;;;;;8.23;4.50;;;;;;;11.46;76.36;102602.19;5118764;27;20079;-56
2022/08/06 03:39:21;;;;;;;6.88;4.40;;;;;;;11.42;76.83;102611.34;5106011;28;20027;-58
2022/08/06 03:41:47;;;;;;;8.38;4.30;;;;;;;11.38;77.15;102610.75;5112854;28;20024;-57
2022/08/06 03:44:14;;;;;;;8.88;4.57;;;;;;;11.36;77.17;102610.06;5106121;28;20051;-56
2022/08/06 03:47:04;;;;;;;9.15;4.40;;;;;;;11.35;77.26;102616.31;5119501;27;20076;-55
2022/08/06 03:49:35;;;;;;;11.13;4.68;;;;;;;11.27;77.35;102605.47;5112190;28;20035;-56
2022/08/06 03:52:02;;;;;;;8.75;4.45;;;;;;;11.19;77.16;102615.88;5107940;28;20059;-56
2022/08/06 03:54:31;;;;;;;7.38;4.43;;;;;;;11.08;77.62;102609.59;5107259;28;20496;-57
2022/08/06 03:57:02;;;;;;;7.82;4.13;;;;;;;11.00;77.62;102617.31;5111017;27;20114;-55
2022/08/06 03:59:29;;;;;;;9.57;4.57;;;;;;;10.98;77.59;102624.53;5106088;28;20034;-56
2022/08/06 04:01:57;;;;;;;7.57;4.30;;;;;;;10.92;77.51;102625.88;5112123;28;20109;-55
2022/08/06 04:04:24;;;;;;;8.32;4.68;;;;;;;10.88;77.76;102625.28;5112783;28;20161;-56
2022/08/06 04:06:50;;;;;;;9.25;4.75;;;;;;;10.89;77.99;102632.25;5113542;27;20039;-55
2022/08/06 04:09:17;;;;;;;7.03;4.53;;;;;;;10.70;78.71;102632.84;5111943;28;20493;-56
2022/08/06 04:11:43;;;;;;;8.48;4.70;;;;;;;10.64;78.51;102638.63;5104452;28;20050;-56
2022/08/06 04:14:09;;;;;;;11.65;4.93;;;;;;;10.70;78.45;102645.28;5100383;28;20385;-56
2022/08/06 04:16:37;;;;;;;10.95;5.00;;;;;;;10.70;78.13;102642.63;5114012;27;20020;-58
2022/08/06 04:19:04;;;;;;;8.13;4.50;;;;;;;10.73;78.38;102642.38;5106019;28;20388;-56
2022/08/06 04:21:30;;;;;;;11.45;4.82;;;;;;;10.77;78.67;102638.53;5107999;28;20034;-56
2022/08/06 04:23:55;;;;;;;6.75;4.45;;;;;;;10.79;78.84;102647.19;5103530;28;20028;-55
2022/08/06 04:26:23;;;;;;;11.25;4.82;;;;;;;10.85;78.12;102648.56;5114977;27;20027;-57
2022/08/06 04:28:55;;;;;;;9.63;4.47;;;;;;;10.81;78.90;102650.56;5113430;27;20054;-55
2022/08/06 04:31:22;;;;;;;8.25;4.50;;;;;;;10.94;77.85;102654.94;5110062;28;20031;-55
2022/08/06 04:33:50;;;;;;;11.90;4.65;;;;;;;10.93;78.18;102659.41;5109162;28;20020;-56
2022/08/06 04:36:15;;;;;;;10.90;4.18;;;;;;;10.88;77.66;102657.13;5108645;28;20019;-58
2022/08/06 04:38:41;;;;;;;7.40;3.95;;;;;;;10.82;78.15;102654.94;5099952;28;20035;-57
2022/08/06 04:41:07;;;;;;;10.55;4.68;;;;;;;10.93;77.93;102655.91;5111324;28;20059;-56
2022/08/06 04:43:32;;;;;;;22.00;8.25;;;;;;;10.99;77.82;102652.75;5104034;28;20093;-55
2022/08/06 04:45:59;;;;;;;38.58;15.10;;;;;;;11.00;77.99;102650.00;5110957;27;20035;-56
2022/08/06 04:48:26;;;;;;;18.35;8.15;;;;;;;11.00;77.71;102649.16;5112135;27;20031;-60
2022/08/06 04:50:51;;;;;;;13.48;5.65;;;;;;;11.01;78.31;102656.16;5102501;28;20110;-56
2022/08/06 04:53:18;;;;;;;11.32;4.95;;;;;;;10.88;77.99;102665.09;5108278;27;20407;-56
2022/08/06 04:55:45;;;;;;;10.85;4.43;;;;;;;10.75;78.31;102662.53;5110491;27;20019;-57
2022/08/06 04:58:13;;;;;;;11.05;4.60;;;;;;;10.63;78.27;102664.31;5100380;27;20062;-56
2022/08/06 05:00:40;;;;;;;6.68;4.45;;;;;;;10.55;79.82;102672.00;5113037;28;20062;-55
2022/08/06 05:03:06;;;;;;;9.27;4.45;;;;;;;10.68;80.14;102671.06;5112591;28;20035;-59
2022/08/06 05:05:37;;;;;;;11.27;4.70;;;;;;;10.78;79.80;102674.72;5106341;27;20337;-58
2022/08/06 05:08:04;;;;;;;10.50;4.60;;;;;;;10.91;79.27;102674.63;5111251;27;20047;-59
2022/08/06 05:10:35;;;;;;;10.52;5.00;;;;;;;10.88;79.07;102667.75;5104771;28;20032;-56
2022/08/06 05:13:01;;;;;;;7.57;4.50;;;;;;;11.08;78.71;102683.06;5111763;28;20044;-56
2022/08/06 05:15:31;;;;;;;9.40;4.75;;;;;;;11.14;78.48;102672.81;5102813;27;20715;-57
2022/08/06 05:18:41;;;;;;;7.03;4.68;;;;;;;11.29;77.90;102675.22;5106773;28;20042;-55
2022/08/06 05:21:10;;;;;;;12.15;5.03;;;;;;;11.28;77.97;102682.38;5009600;28;20683;-56
2022/08/06 05:23:49;;;;;;;13.35;5.00;;;;;;;11.38;77.80;102689.59;5005472;28;20029;-56
2022/08/06 05:26:15;;;;;;;12.10;5.20;;;;;;;11.42;78.21;102686.59;5070644;27;20425;-56
2022/08/06 05:28:41;;;;;;;16.00;5.35;;;;;;;11.50;77.60;102693.09;5113805;27;20353;-56
2022/08/06 05:31:07;;;;;;;18.52;5.15;;;;;;;11.51;78.41;102684.16;5098689;28;20031;-56
2022/08/06 05:33:37;;;;;;;14.63;5.22;;;;;;;11.52;78.57;102700.00;5111339;28;20391;-56
2022/08/06 05:36:05;;;;;;;10.55;5.00;;;;;;;11.50;79.46;102687.78;5116233;28;20023;-56
2022/08/06 05:38:33;;;;;;;12.68;5.45;;;;;;;11.53;79.93;102687.53;5116389;28;20028;-56
2022/08/06 05:40:58;;;;;;;13.60;5.68;;;;;;;11.61;78.85;102703.72;5102089;28;20031;-56
2022/08/06 05:43:25;;;;;;;12.05;6.10;;;;;;;11.58;79.29;102698.63;5110641;28;20051;-56
2022/08/06 05:45:54;;;;;;;15.95;6.20;;;;;;;11.60;79.71;102698.53;5114972;28;20031;-57
2022/08/06 05:48:21;;;;;;;17.55;5.97;;;;;;;11.57;80.22;102694.31;5107523;28;20032;-57
2022/08/06 05:50:53;;;;;;;14.63;5.78;;;;;;;11.71;80.17;102701.19;5106968;28;20065;-56
2022/08/06 05:53:25;;;;;;;16.55;5.82;;;;;;;11.80;79.50;102707.56;5106734;28;20027;-57
2022/08/06 05:55:56;;;;;;;16.55;6.10;;;;;;;11.93;79.96;102700.28;5103937;28;20483;-55
2022/08/06 05:58:41;;;;;;;13.95;5.32;;;;;;;12.09;79.84;102694.59;5110116;28;20031;-57
2022/08/06 06:01:07;;;;;;;14.93;6.30;;;;;;;12.04;80.72;102702.09;5111217;28;20039;-56
2022/08/06 06:03:35;;;;;;;16.08;5.53;;;;;;;12.10;80.18;102706.06;5101946;28;20409;-58
2022/08/06 06:06:01;;;;;;;13.80;5.75;;;;;;;12.19;79.78;102720.44;5104174;28;20070;-55
2022/08/06 06:08:27;;;;;;;14.15;6.00;;;;;;;12.23;80.07;102706.75;5106383;28;20035;-56
2022/08/06 06:10:53;;;;;;;12.32;6.30;;;;;;;12.38;80.99;102717.94;5111464;28;20032;-58
2022/08/06 06:13:21;;;;;;;10.75;5.68;;;;;;;12.44;80.59;102705.09;5114811;28;20034;-58
2022/08/06 06:15:56;;;;;;;8.77;5.40;;;;;;;12.55;81.11;102714.84;5114461;28;20031;-59
2022/08/06 06:18:36;;;;;;;15.70;5.50;;;;;;;12.66;80.62;102714.78;5105572;28;20383;-60
2022/08/06 06:21:25;;;;;;;7.53;5.38;;;;;;;12.88;79.82;102716.47;5109783;28;20496;-58
2022/08/06 06:24:16;;;;;;;10.95;5.25;;;;;;;13.01;79.58;102710.09;5103844;28;20020;-59
2022/08/06 06:27:01;;;;;;;11.63;5.53;;;;;;;13.14;80.36;102709.88;5106324;27;20032;-61
2022/08/06 06:29:35;;;;;;;13.60;5.78;;;;;;;13.26;80.14;102710.63;5105188;28;20036;-60
2022/08/06 06:32:15;;;;;;;13.98;5.50;;;;;;;13.37;80.01;102715.03;5114205;28;20499;-58
2022/08/06 06:34:50;;;;;;;15.38;5.13;;;;;;;13.50;79.39;102721.00;5108641;28;20037;-59
2022/08/06 06:37:23;;;;;;;9.65;4.57;;;;;;;13.59;80.05;102712.19;5109596;27;20094;-58
2022/08/06 06:40:01;;;;;;;12.65;4.50;;;;;;;13.67;78.96;102718.69;5107699;28;20028;-58
2022/08/06 06:42:37;;;;;;;9.05;3.90;;;;;;;13.75;77.73;102724.19;5103414;28;20023;-59
2022/08/06 06:45:19;;;;;;;10.60;3.60;;;;;;;13.79;77.47;102719.41;5104535;28;20036;-57
2022/08/06 06:47:56;;;;;;;9.20;3.55;;;;;;;13.92;77.73;102728.00;5108641;27;20500;-60
2022/08/06 06:50:25;;;;;;;9.10;3.28;;;;;;;14.00;77.99;102727.31;5104523;28;20027;-59
2022/08/06 06:52:52;;;;;;;7.65;3.28;;;;;;;14.13;77.76;102727.88;5110309;28;20031;-59
2022/08/06 06:55:45;;;;;;;9.45;3.40;;;;;;;14.28;77.29;102735.50;5110508;28;20041;-58
2022/08/06 06:58:31;;;;;;;;;;;;;;;14.38;76.47;102731.03;5100381;28;20487;-59
2022/08/06 07:00:56;;;;;;;8.05;3.20;;;;;;;14.51;77.49;102732.56;5102918;28;19936;-59
2022/08/06 07:03:23;;;;;;;6.63;3.08;;;;;;;14.58;75.84;102736.34;5115149;28;20103;-60
2022/08/06 07:05:50;;;;;;;7.13;2.55;;;;;;;14.70;75.30;102728.19;5110377;28;20020;-59
2022/08/06 07:08:19;;;;;;;8.85;2.60;;;;;;;14.79;75.03;102730.00;5109534;28;20465;-59
2022/08/06 07:10:45;;;;;;;7.50;2.30;;;;;;;14.90;74.17;102724.50;5111915;28;20118;-59
2022/08/06 07:13:12;;;;;;;5.60;2.20;;;;;;;15.00;74.34;102726.34;5112283;27;20028;-59
2022/08/06 07:15:40;;;;;;;6.00;2.40;;;;;;;15.11;72.84;102731.50;5105601;27;20043;-60
2022/08/06 07:18:06;;;;;;;7.90;2.30;;;;;;;15.17;71.87;102730.94;5104286;27;20510;-59
2022/08/06 07:20:33;;;;;;;7.32;2.55;;;;;;;15.22;71.96;102732.28;5110865;27;20036;-59
2022/08/06 07:23:01;;;;;;;6.18;2.20;;;;;;;15.35;72.07;102738.19;5105491;28;20556;-58
2022/08/06 07:25:28;;;;;;;5.00;2.10;;;;;;;15.38;69.50;102739.69;5105715;27;20032;-59
2022/08/06 07:27:53;;;;;;;5.43;2.33;;;;;;;15.50;71.37;102743.03;5100366;27;20036;-59
2022/08/06 07:30:20;;;;;;;5.40;1.90;;;;;;;15.56;68.58;102739.78;5109495;28;20034;-59
2022/08/06 07:32:47;;;;;;;4.55;2.17;;;;;;;15.62;68.50;102749.88;5113814;28;20031;-59
2022/08/06 07:35:14;;;;;;;8.60;2.40;;;;;;;15.74;70.57;102748.69;5109772;27;20035;-59
2022/08/06 07:37:54;;;;;;;6.93;2.00;;;;;;;15.72;67.51;102756.03;5099945;27;20495;-59
2022/08/06 07:40:29;;;;;;;6.85;2.20;;;;;;;15.82;67.34;102760.47;5109622;27;20144;-60
2022/08/06 07:43:00;;;;;;;8.23;2.63;;;;;;;15.92;69.78;102755.94;5102238;28;20044;-60
2022/08/06 07:45:31;;;;;;;4.65;1.90;;;;;;;15.95;66.88;102755.66;5107973;28;20016;-59
2022/08/06 07:48:00;;;;;;;3.17;1.80;;;;;;;16.03;65.70;102754.03;5112271;27;20043;-60
2022/08/06 07:50:27;;;;;;;7.72;1.90;;;;;;;16.08;65.33;102759.78;5107661;28;20031;-59
2022/08/06 07:52:54;;;;;;;9.35;1.90;;;;;;;16.10;64.93;102763.16;5108444;28;20027;-60
2022/08/06 07:55:24;;;;;;;7.55;2.20;;;;;;;16.15;64.74;102760.88;5102279;27;20024;-59
2022/08/06 07:57:52;;;;;;;5.85;2.03;;;;;;;16.20;65.28;102768.44;5111708;27;20035;-59
2022/08/06 08:00:17;;;;;;;5.03;1.92;;;;;;;16.32;65.30;102763.72;5113873;28;20368;-60
2022/08/06 08:06:17;;;;;;;5.00;1.90;;;;;;;16.35;63.53;102771.44;5109582;28;20024;-56
2022/08/06 08:08:14;;;;;;;5.43;1.70;;;;;;;16.53;63.44;102764.22;5102515;27;20051;-56
2022/08/06 08:10:41;;;;;;;6.45;1.60;;;;;;;16.52;61.28;102770.59;5111401;28;20027;-57
2022/08/06 08:13:06;;;;;;;5.25;1.58;;;;;;;16.63;61.57;102768.66;5113408;28;20535;-57
2022/08/06 08:15:32;;;;;;;5.50;1.50;;;;;;;16.69;60.24;102770.72;5111048;28;20103;-57
2022/08/06 08:17:58;;;;;;;4.75;1.50;;;;;;;16.75;61.33;102772.78;5108930;28;20162;-56
2022/08/06 08:20:26;;;;;;;5.60;1.58;;;;;;;16.75;60.62;102767.44;5113343;28;20039;-57
2022/08/06 08:22:51;;;;;;;6.75;1.70;;;;;;;16.76;61.07;102763.75;5113146;28;20080;-57
2022/08/06 08:25:17;;;;;;;2.85;1.42;;;;;;;16.91;61.91;102771.22;5109445;28;20049;-58
2022/08/06 08:27:43;;;;;;;4.90;1.55;;;;;;;16.98;59.85;102772.28;5108447;28;20039;-57
2022/08/06 08:30:10;;;;;;;5.72;1.70;;;;;;;17.01;59.92;102771.97;5113307;28;20024;-56
2022/08/06 08:32:35;;;;;;;5.47;1.60;;;;;;;17.13;59.87;102774.41;5110497;28;20038;-57
2022/08/06 08:35:01;;;;;;;3.10;1.50;;;;;;;17.19;58.96;102774.63;5099703;28;20111;-56
2022/08/06 08:37:26;;;;;;;3.20;1.50;;;;;;;17.29;60.89;102777.19;5107316;28;20102;-58
2022/08/06 08:39:51;;;;;;;4.72;1.60;;;;;;;17.42;58.27;102773.25;5111572;28;20036;-56
2022/08/06 08:42:28;;;;;;;5.25;1.60;;;;;;;17.42;57.31;102773.25;5111294;28;20031;-57
2022/08/06 08:44:54;;;;;;;5.60;1.73;;;;;;;17.55;59.49;102770.94;5111503;28;20043;-58
2022/08/06 08:47:20;;;;;;;3.08;1.50;;;;;;;17.65;58.00;102770.81;5110902;27;20035;-57
2022/08/06 08:49:50;;;;;;;5.63;1.70;;;;;;;17.70;56.72;102773.00;5106673;28;20403;-56
2022/08/06 08:52:19;;;;;;;4.80;1.63;;;;;;;17.78;55.59;102767.69;5105817;28;20038;-57
2022/08/06 08:54:54;;;;;;;3.45;1.60;;;;;;;17.80;54.48;102778.28;5110455;27;20475;-56
2022/08/06 08:57:22;;;;;;;4.03;1.50;;;;;;;17.66;54.37;102779.72;5115271;27;20691;-56
2022/08/06 08:59:48;;;;;;;4.25;1.55;;;;;;;17.54;53.73;102777.31;5111169;28;20032;-58
2022/08/06 09:02:13;;;;;;;2.47;1.40;;;;;;;17.75;54.87;102778.72;5109114;28;20031;-60
2022/08/06 09:04:39;;;;;;;4.50;1.50;;;;;;;17.74;55.07;102785.97;5106020;28;20323;-57
2022/08/06 09:07:07;;;;;;;4.53;1.60;;;;;;;17.64;54.13;102781.69;5100573;28;20023;-58
2022/08/06 09:09:34;;;;;;;3.45;1.55;;;;;;;17.52;55.07;102783.84;5101849;28;20058;-59
2022/08/06 09:12:00;;;;;;;2.72;1.50;;;;;;;17.36;54.34;102787.28;5110839;28;20031;-56
2022/08/06 09:14:25;;;;;;;6.03;1.40;;;;;;;17.18;55.18;102793.53;5111645;28;20084;-57
2022/08/06 09:16:50;;;;;;;3.25;1.35;;;;;;;17.09;56.03;102784.59;5109534;27;20031;-56
2022/08/06 09:19:16;;;;;;;3.70;1.27;;;;;;;17.32;55.20;102787.59;5097619;28;20115;-57
2022/08/06 09:21:42;;;;;;;4.78;1.42;;;;;;;17.44;54.28;102779.28;5109687;28;20426;-56
2022/08/06 09:24:09;;;;;;;3.55;1.30;;;;;;;17.69;53.90;102785.59;5110223;28;20028;-57
2022/08/06 09:26:34;;;;;;;5.38;1.45;;;;;;;17.90;53.04;102792.38;5096427;28;20038;-56
2022/08/06 09:29:00;;;;;;;2.53;1.20;;;;;;;18.06;52.56;102796.16;5104087;28;20099;-56
2022/08/06 09:31:25;;;;;;;6.03;1.50;;;;;;;18.25;52.00;102784.25;5110003;28;20854;-53
2022/08/06 09:33:58;;;;;;;5.07;1.42;;;;;;;18.49;51.69;102796.03;5110746;28;20106;-58
2022/08/06 09:36:24;;;;;;;3.53;1.38;;;;;;;18.44;49.96;102788.50;5109678;28;20038;-57
2022/08/06 09:38:58;;;;;;;3.55;1.25;;;;;;;18.33;50.89;102786.97;5108447;28;20019;-57
2022/08/06 09:41:26;;;;;;;6.40;1.95;;;;;;;18.22;53.51;102785.47;5109676;28;20035;-57
2022/08/06 09:43:54;;;;;;;3.58;1.20;;;;;;;18.02;51.58;102795.63;5109414;28;20083;-56
2022/08/06 09:46:43;;;;;;;4.55;1.40;;;;;;;18.15;53.24;102796.00;5110667;27;20028;-57
2022/08/06 09:49:10;;;;;;;5.10;1.60;;;;;;;18.10;51.28;102801.03;5110102;28;20096;-57
2022/08/06 09:51:37;;;;;;;3.03;1.40;;;;;;;18.34;51.86;102794.03;5108727;27;20067;-57
2022/08/06 09:54:05;;;;;;;5.47;1.60;;;;;;;18.56;51.73;102797.06;5105258;27;20460;-58
2022/08/06 09:56:30;;;;;;;4.57;1.40;;;;;;;18.64;49.83;102794.38;5110659;28;20080;-59
2022/08/06 09:59:05;;;;;;;3.40;1.23;;;;;;;18.69;50.22;102797.41;5115629;28;20529;-56
2022/08/06 10:01:41;;;;;;;2.10;1.33;;;;;;;18.78;50.72;102784.81;5113399;27;20059;-61
2022/08/06 10:04:12;;;;;;;6.35;1.52;;;;;;;18.83;49.75;102792.34;5110536;28;20073;-60
2022/08/06 10:06:56;;;;;;;3.25;1.30;;;;;;;18.79;48.84;102791.84;5106713;27;20042;-60
2022/08/06 10:09:22;;;;;;;3.05;1.40;;;;;;;18.95;49.05;102796.38;5110655;28;20031;-59
2022/08/06 10:11:48;;;;;;;4.45;1.30;;;;;;;19.16;47.91;102786.13;5111836;28;20487;-59
2022/08/06 10:14:22;;;;;;;2.85;1.00;;;;;;;19.30;45.32;102785.41;5112949;28;20113;-60
2022/08/06 10:17:09;;;;;;;3.72;1.20;;;;;;;19.41;46.77;102784.22;5116042;27;20383;-60
2022/08/06 10:19:36;;;;;;;2.80;1.30;;;;;;;19.51;45.74;102788.53;5102657;28;20024;-59
2022/08/06 10:22:11;;;;;;;2.08;1.10;;;;;;;19.53;45.77;102786.53;5110085;28;20028;-60
2022/08/06 10:24:57;;;;;;;2.28;1.20;;;;;;;19.55;46.41;102777.28;5115097;28;20032;-60
2022/08/06 10:27:28;;;;;;;2.70;1.23;;;;;;;19.55;45.16;102776.44;5106790;27;20077;-59
2022/08/06 10:29:57;;;;;;;2.88;1.23;;;;;;;19.67;42.65;102769.66;5106793;28;20023;-60
2022/08/06 10:32:36;;;;;;;2.70;1.23;;;;;;;19.67;44.96;102769.66;5107490;28;20064;-59
2022/08/06 10:35:05;;;;;;;1.67;1.00;;;;;;;19.83;42.48;102773.28;5112292;28;20050;-59
2022/08/06 10:37:35;;;;;;;2.03;1.17;;;;;;;19.89;43.36;102769.88;5110779;28;20109;-60
2022/08/06 10:40:03;;;;;;;3.13;1.30;;;;;;;19.96;43.66;102770.88;5111720;28;20042;-60
2022/08/06 10:42:29;;;;;;;1.98;1.08;;;;;;;20.07;44.18;102766.13;5105565;28;20326;-60
2022/08/06 10:44:56;;;;;;;2.65;0.90;;;;;;;20.10;41.95;102760.34;5114560;28;20027;-59
2022/08/06 10:47:22;;;;;;;2.38;1.17;;;;;;;20.23;42.57;102760.59;5111835;27;20031;-59
2022/08/06 10:49:48;;;;;;;2.17;1.10;;;;;;;20.26;41.05;102754.88;5112956;28;20687;-60
2022/08/06 10:52:13;;;;;;;2.00;1.00;;;;;;;20.29;41.22;102757.19;5113387;28;20027;-60
2022/08/06 10:54:40;;;;;;;1.45;1.00;;;;;;;20.36;40.69;102756.47;5115002;28;20031;-59
2022/08/06 10:57:07;;;;;;;3.00;1.10;;;;;;;20.46;41.35;102758.94;5124226;27;20546;-59
2022/08/06 10:59:32;;;;;;;1.38;1.08;;;;;;;20.48;42.95;102757.69;5108169;28;20491;-60
2022/08/06 11:02:35;;;;;;;3.28;1.10;;;;;;;20.42;42.96;102761.13;5106864;28;20023;-60
2022/08/06 11:05:06;;;;;;;1.77;1.00;;;;;;;20.25;42.77;102757.72;5115054;28;20083;-60
2022/08/06 11:07:47;;;;;;;1.88;1.20;;;;;;;20.34;42.92;102755.81;5113135;28;20027;-60
2022/08/06 11:10:32;;;;;;;3.20;1.00;;;;;;;20.41;40.89;102759.44;5113782;28;20043;-59
2022/08/06 11:13:19;;;;;;;1.65;1.00;;;;;;;20.55;41.71;102758.69;5113010;28;20063;-60
2022/08/06 11:15:44;;;;;;;1.98;1.10;;;;;;;20.48;39.68;102752.31;5113455;28;20517;-60
2022/08/06 11:18:12;;;;;;;1.17;0.95;;;;;;;20.58;38.66;102748.53;5105751;28;20035;-60
2022/08/06 11:20:41;;;;;;;1.85;0.93;;;;;;;20.62;39.55;102741.78;5114554;28;20047;-60
2022/08/06 11:23:12;;;;;;;1.98;1.00;;;;;;;20.69;40.33;102745.41;5114852;28;20023;-60
2022/08/06 11:25:42;;;;;;;3.78;1.30;;;;;;;20.76;41.26;102740.97;5114392;28;20031;-61
2022/08/06 11:28:11;;;;;;;3.20;1.25;;;;;;;20.76;41.33;102742.81;5117272;27;20055;-60
2022/08/06 11:30:51;;;;;;;4.32;1.20;;;;;;;20.68;41.14;102741.03;5108874;28;20031;-60
2022/08/06 11:33:35;;;;;;;4.03;1.02;;;;;;;20.85;40.10;102746.28;5108042;28;20119;-61
2022/08/06 11:36:00;;;;;;;3.35;1.13;;;;;;;20.91;39.00;102745.56;5098120;28;20497;-62
2022/08/06 11:38:47;;;;;;;3.27;1.20;;;;;;;20.96;40.50;102737.75;5108845;28;20059;-60